Time;durP1;ratioP1;P1;durP2;ratioP2;P2;SDS_P1;SDS_P2;PMS_P1;PMS_P2;Temp;Humidity;BMP_temperature;BMP_pressure;BME280_temperature;BME280_humidity;BME280_pressure;Samples;Min_cycle;Max_cycle;Signal;HPM_P1;HPM_P2
2021/06/11 10:09:28;;;;;;;8.27;4.10;;;27.80;48.00;;;;;;5109716;27;20994;-74
2021/06/11 10:11:53;;;;;;;5.88;4.45;;;27.60;47.60;;;;;;5073013;28;20161;-74
2021/06/11 10:14:19;;;;;;;5.50;4.85;;;27.50;47.80;;;;;;5070040;28;20095;-74
2021/06/11 10:16:44;;;;;;;7.35;4.07;;;27.30;47.80;;;;;;5083352;28;20027;-74
2021/06/11 10:19:10;;;;;;;10.75;4.53;;;27.20;48.20;;;;;;5076360;28;20024;-73
2021/06/11 10:21:36;;;;;;;14.93;4.40;;;27.10;48.80;;;;;;5081991;28;20069;-74
2021/06/11 10:24:02;;;;;;;7.10;4.28;;;27.10;49.40;;;;;;5089661;28;20028;-74
2021/06/11 10:26:28;;;;;;;12.65;7.63;;;27.00;49.90;;;;;;5089023;28;20108;-75
2021/06/11 10:28:53;;;;;;;7.22;5.47;;;26.90;48.80;;;;;;5088120;28;20115;-73
2021/06/11 10:31:22;;;;;;;6.00;4.43;;;26.90;49.70;;;;;;5066934;28;20028;-74
2021/06/11 10:33:52;;;;;;;9.50;4.82;;;26.90;50.30;;;;;;5086742;28;20025;-75
2021/06/11 10:36:27;;;;;;;5.57;4.05;;;26.90;50.20;;;;;;5086155;28;20012;-73
2021/06/11 10:39:13;;;;;;;7.15;4.25;;;26.90;50.30;;;;;;5085189;28;20103;-75
2021/06/11 10:42:01;;;;;;;6.15;3.47;;;26.90;49.80;;;;;;5089771;28;20126;-73
2021/06/11 10:44:36;;;;;;;5.32;3.92;;;26.90;49.50;;;;;;5087039;28;20025;-74
2021/06/11 10:47:33;;;;;;;4.55;3.63;;;27.00;49.40;;;;;;5089261;28;20024;-75
2021/06/11 10:50:00;;;;;;;5.35;3.92;;;27.00;49.10;;;;;;5070978;28;20389;-76
2021/06/11 10:52:35;;;;;;;8.55;7.55;;;26.90;49.50;;;;;;5087480;28;20027;-74
2021/06/11 10:55:19;;;;;;;8.75;6.50;;;26.80;47.90;;;;;;5085884;28;20024;-74
2021/06/11 10:57:45;;;;;;;9.70;8.48;;;26.80;49.10;;;;;;5085188;28;20032;-79
2021/06/11 11:00:30;;;;;;;9.73;6.15;;;26.70;48.30;;;;;;5057235;28;20106;-78
2021/06/11 11:02:58;;;;;;;10.05;6.05;;;26.80;49.40;;;;;;5080705;28;20028;-77
2021/06/11 11:05:30;;;;;;;7.85;5.38;;;26.70;49.70;;;;;;5086938;28;20090;-77
2021/06/11 11:07:56;;;;;;;13.57;5.55;;;26.80;50.80;;;;;;5087499;28;20032;-79
2021/06/11 11:10:47;;;;;;;7.47;4.18;;;26.80;50.70;;;;;;5087167;28;20445;-78
2021/06/11 11:13:13;;;;;;;5.40;4.32;;;26.80;50.50;;;;;;5086599;28;20063;-76
2021/06/11 11:15:43;;;;;;;9.02;4.30;;;26.80;50.30;;;;;;5046486;28;20037;-76
2021/06/11 11:18:10;;;;;;;4.38;3.72;;;26.80;50.20;;;;;;5027378;28;20513;-76
2021/06/11 11:20:36;;;;;;;4.55;3.63;;;26.90;50.00;;;;;;5013959;28;20104;-76
2021/06/11 11:23:04;;;;;;;6.63;4.22;;;26.90;49.90;;;;;;5030164;28;20121;-75
2021/06/11 11:25:29;;;;;;;8.05;3.80;;;26.90;50.30;;;;;;5016905;28;20025;-75
2021/06/11 11:27:55;;;;;;;11.50;4.53;;;26.90;50.10;;;;;;5018328;28;20121;-77
2021/06/11 11:30:24;;;;;;;9.55;4.35;;;26.90;50.00;;;;;;5014673;28;20034;-77
2021/06/11 11:32:50;;;;;;;12.48;5.13;;;26.90;50.10;;;;;;5011221;28;20073;-78
2021/06/11 11:35:17;;;;;;;12.38;4.97;;;26.90;50.00;;;;;;5015853;28;20464;-81
2021/06/11 11:37:43;;;;;;;12.52;5.82;;;26.90;50.30;;;;;;5013834;28;20029;-80
2021/06/11 11:40:09;;;;;;;7.47;5.10;;;26.90;48.90;;;;;;5015409;28;20030;-78
2021/06/11 11:42:34;;;;;;;7.30;5.57;;;26.90;48.40;;;;;;5004837;28;20034;-78
2021/06/11 11:45:00;;;;;;;12.55;6.90;;;26.90;48.20;;;;;;5009593;28;20529;-78
2021/06/11 11:47:26;;;;;;;5.68;4.60;;;26.80;47.30;;;;;;5012988;28;20057;-78
2021/06/11 11:49:51;;;;;;;9.40;6.10;;;26.80;47.90;;;;;;5014011;28;20386;-78
2021/06/11 11:52:17;;;;;;;10.15;6.00;;;26.80;47.50;;;;;;5015783;28;20109;-78
2021/06/11 11:54:42;;;;;;;7.13;5.10;;;26.80;47.70;;;;;;5013493;28;20042;-76
2021/06/11 11:57:08;;;;;;;8.32;5.18;;;26.70;47.30;;;;;;4996460;28;20414;-76
2021/06/11 11:59:33;;;;;;;9.48;5.15;;;26.80;48.20;;;;;;5036904;28;20038;-77
2021/06/11 12:01:59;;;;;;;7.65;5.15;;;26.90;48.50;;;;;;5030260;28;20088;-77
2021/06/11 12:04:24;;;;;;;6.40;4.65;;;26.80;48.40;;;;;;5014239;28;20116;-76
2021/06/11 12:06:50;;;;;;;8.07;4.53;;;26.90;48.80;;;;;;5014636;28;20029;-77
2021/06/11 12:09:16;;;;;;;9.57;5.45;;;26.90;48.70;;;;;;5026859;28;20357;-77
2021/06/11 12:11:41;;;;;;;8.10;5.10;;;26.90;48.90;;;;;;5011330;28;20030;-77
2021/06/11 12:14:07;;;;;;;10.30;5.07;;;26.90;48.70;;;;;;5030936;28;20022;-76
2021/06/11 12:16:32;;;;;;;10.55;5.03;;;26.90;48.80;;;;;;5029013;28;20088;-77
2021/06/11 12:18:58;;;;;;;6.50;4.65;;;26.90;48.90;;;;;;5011842;28;20052;-77
2021/06/11 12:21:24;;;;;;;9.52;5.30;;;26.90;48.70;;;;;;5013642;28;20042;-77
2021/06/11 12:23:49;;;;;;;8.27;5.70;;;26.90;48.70;;;;;;5013177;28;20065;-80
2021/06/11 12:26:15;;;;;;;9.05;5.25;;;27.00;48.80;;;;;;5031757;28;20038;-79
2021/06/11 12:28:41;;;;;;;6.95;4.47;;;27.00;48.90;;;;;;5029170;28;20148;-80
2021/06/11 12:31:06;;;;;;;8.80;5.38;;;27.00;48.80;;;;;;5030348;28;20029;-78
2021/06/11 12:33:32;;;;;;;6.53;4.70;;;27.00;48.50;;;;;;5012157;28;20030;-81
2021/06/11 12:35:57;;;;;;;6.32;4.68;;;27.00;48.40;;;;;;5014950;28;20101;-78
2021/06/11 12:38:23;;;;;;;7.22;3.72;;;27.00;48.60;;;;;;5011753;28;20037;-80
2021/06/11 12:40:51;;;;;;;8.45;4.72;;;26.90;48.60;;;;;;5014031;28;20459;-77
2021/06/11 12:43:20;;;;;;;6.18;3.85;;;27.00;48.50;;;;;;5013323;28;20052;-76
2021/06/11 12:45:45;;;;;;;9.48;4.22;;;27.00;48.20;;;;;;5030291;28;20061;-76
2021/06/11 12:48:11;;;;;;;5.65;4.18;;;26.90;47.90;;;;;;5012408;28;20458;-76
2021/06/11 12:50:38;;;;;;;4.93;3.83;;;27.00;48.40;;;;;;5013635;28;20100;-76
2021/06/11 12:53:04;;;;;;;6.35;4.20;;;27.00;48.50;;;;;;5005817;28;20081;-76
2021/06/11 12:55:29;;;;;;;3.97;3.58;;;26.90;48.50;;;;;;5023974;28;20022;-77
2021/06/11 12:57:55;;;;;;;6.40;4.15;;;26.90;48.60;;;;;;5014523;28;20034;-77
2021/06/11 13:00:21;;;;;;;6.85;3.88;;;26.90;48.40;;;;;;5012283;28;20056;-76
2021/06/11 13:02:46;;;;;;;6.18;3.95;;;26.90;48.50;;;;;;5012630;28;20073;-78
2021/06/11 13:05:14;;;;;;;14.93;3.90;;;26.90;48.30;;;;;;5013146;28;20030;-78
2021/06/11 13:07:40;;;;;;;12.85;3.85;;;26.90;48.90;;;;;;5013438;28;20042;-79
2021/06/11 13:10:06;;;;;;;19.85;4.75;;;27.00;49.70;;;;;;5014049;28;20026;-76
2021/06/11 13:12:31;;;;;;;40.83;5.32;;;27.00;51.20;;;;;;5012054;28;20029;-77
2021/06/11 13:14:57;;;;;;;20.20;4.80;;;27.00;50.60;;;;;;5012738;28;20034;-78
2021/06/11 13:17:22;;;;;;;7.38;3.85;;;27.00;49.30;;;;;;5008647;28;20081;-76
2021/06/11 13:19:48;;;;;;;23.20;5.55;;;27.00;50.10;;;;;;5009790;28;20121;-76
2021/06/11 13:22:13;;;;;;;7.88;4.40;;;27.10;49.70;;;;;;5003996;28;20360;-77
2021/06/11 13:24:40;;;;;;;7.60;4.72;;;27.10;49.30;;;;;;5005084;28;20098;-76
2021/06/11 13:27:06;;;;;;;11.50;5.05;;;27.10;49.30;;;;;;5012190;28;20030;-77
2021/06/11 13:29:31;;;;;;;14.85;5.80;;;27.10;49.80;;;;;;5013148;28;20531;-76
2021/06/11 13:31:57;;;;;;;10.73;4.82;;;27.10;49.40;;;;;;5013812;28;20372;-76
2021/06/11 13:34:22;;;;;;;15.15;8.18;;;27.20;49.30;;;;;;5005659;28;20038;-76
2021/06/11 13:36:48;;;;;;;18.95;7.72;;;27.30;50.30;;;;;;5041091;28;20037;-76
2021/06/11 13:39:13;;;;;;;20.70;7.75;;;27.30;51.00;;;;;;5010055;28;20387;-76
2021/06/11 13:41:39;;;;;;;16.88;9.02;;;27.30;51.90;;;;;;5031264;28;20026;-77
2021/06/11 13:44:05;;;;;;;17.40;8.90;;;27.30;52.10;;;;;;5005089;28;20034;-75
2021/06/11 13:46:31;;;;;;;16.20;8.27;;;27.50;51.70;;;;;;5014832;28;20026;-77
2021/06/11 13:48:56;;;;;;;14.68;8.00;;;27.60;51.60;;;;;;5004301;28;20502;-76
2021/06/11 13:51:22;;;;;;;17.88;8.82;;;27.50;50.60;;;;;;5034819;28;20089;-76
2021/06/11 13:53:49;;;;;;;16.17;8.52;;;27.50;51.00;;;;;;5003677;28;20108;-77
2021/06/11 13:56:17;;;;;;;15.32;10.40;;;27.50;50.40;;;;;;5003915;28;20030;-76
2021/06/11 13:58:42;;;;;;;19.02;11.15;;;27.60;50.60;;;;;;5004929;28;20041;-79
2021/06/11 14:01:08;;;;;;;18.40;10.27;;;27.70;52.00;;;;;;5007814;28;20545;-76
2021/06/11 14:03:33;;;;;;;22.05;12.82;;;27.80;50.00;;;;;;5008241;28;20033;-82
2021/06/11 14:05:59;;;;;;;17.20;10.65;;;28.10;51.50;;;;;;5009273;28;20026;-78
2021/06/11 14:08:24;;;;;;;16.75;8.52;;;27.90;47.90;;;;;;5007446;28;20029;-78
2021/06/11 14:10:53;;;;;;;15.57;9.40;;;27.90;47.90;;;;;;5007205;28;20029;-77
2021/06/11 14:13:18;;;;;;;17.63;8.75;;;27.90;45.90;;;;;;5026793;28;20018;-77
2021/06/11 14:15:44;;;;;;;15.15;8.05;;;27.90;46.60;;;;;;5029439;28;20049;-78
2021/06/11 14:18:10;;;;;;;13.00;8.02;;;27.90;45.60;;;;;;5012892;28;20025;-78
2021/06/11 14:20:35;;;;;;;12.02;7.55;;;27.90;47.00;;;;;;5028951;28;20026;-79
2021/06/11 14:23:01;;;;;;;13.10;7.55;;;28.00;46.70;;;;;;5011848;28;20064;-79
2021/06/11 14:25:27;;;;;;;9.80;6.80;;;28.00;48.20;;;;;;5009968;28;20475;-81
2021/06/11 14:27:53;;;;;;;13.90;6.47;;;28.00;48.00;;;;;;5011848;28;20076;-81
2021/06/11 14:30:20;;;;;;;13.45;6.35;;;28.00;47.70;;;;;;5013896;28;20026;-79
2021/06/11 14:32:46;;;;;;;15.38;5.97;;;28.00;48.30;;;;;;4994581;28;20057;-78
2021/06/11 14:35:13;;;;;;;11.75;6.18;;;27.90;46.70;;;;;;5023898;28;20026;-79
2021/06/11 14:37:38;;;;;;;9.23;5.35;;;27.90;46.50;;;;;;5032170;28;20427;-78
2021/06/11 14:40:04;;;;;;;13.13;5.80;;;27.90;46.90;;;;;;5014362;28;20168;-77
2021/06/11 14:42:30;;;;;;;8.75;5.45;;;27.90;46.40;;;;;;5013584;28;20049;-80
2021/06/11 14:44:55;;;;;;;8.40;5.30;;;27.90;47.20;;;;;;5013131;28;20034;-78
2021/06/11 14:47:21;;;;;;;5.50;4.60;;;27.90;46.90;;;;;;5010047;28;20422;-79
2021/06/11 14:49:48;;;;;;;5.85;4.30;;;27.90;47.10;;;;;;5024086;28;20030;-80
2021/06/11 14:52:14;;;;;;;8.38;4.65;;;27.90;46.80;;;;;;5024775;28;20101;-79
2021/06/11 14:54:50;;;;;;;5.57;4.40;;;27.90;47.00;;;;;;5019273;28;20033;-78
2021/06/11 14:57:16;;;;;;;8.88;4.40;;;27.90;47.00;;;;;;5018033;28;20109;-77
2021/06/11 14:59:41;;;;;;;8.82;4.70;;;27.90;47.40;;;;;;5017559;28;20447;-80
2021/06/11 15:02:07;;;;;;;8.68;4.15;;;27.90;46.20;;;;;;5020931;28;20116;-78
2021/06/11 15:04:32;;;;;;;6.53;4.30;;;27.90;46.80;;;;;;5027617;28;20018;-78
2021/06/11 15:06:58;;;;;;;6.85;3.60;;;27.90;46.60;;;;;;5042215;28;20080;-79
2021/06/11 15:09:23;;;;;;;9.93;4.30;;;27.90;47.20;;;;;;5015232;28;20030;-78
2021/06/11 15:11:49;;;;;;;11.27;4.32;;;27.90;46.60;;;;;;5026641;28;20029;-78
2021/06/11 15:14:14;;;;;;;8.55;4.68;;;27.90;46.50;;;;;;5031731;28;20105;-78
2021/06/11 15:16:40;;;;;;;4.97;3.85;;;27.80;46.30;;;;;;5023409;28;20018;-78
2021/06/11 15:19:05;;;;;;;6.72;3.42;;;27.90;45.30;;;;;;5016952;28;20124;-78
2021/06/11 15:21:31;;;;;;;5.88;4.03;;;27.90;45.60;;;;;;5019733;28;20124;-80
2021/06/11 15:23:57;;;;;;;6.68;3.83;;;28.00;47.10;;;;;;5015607;28;20065;-80
2021/06/11 15:26:23;;;;;;;8.10;3.80;;;27.90;46.20;;;;;;5020479;28;20060;-84
2021/06/11 15:28:52;;;;;;;7.45;3.70;;;27.90;48.00;;;;;;5035433;28;20388;-82
2021/06/11 15:31:18;;;;;;;5.57;3.63;;;27.90;47.20;;;;;;5034798;28;20029;-81
2021/06/11 15:33:43;;;;;;;12.15;3.63;;;27.90;47.40;;;;;;5053417;28;20030;-83
2021/06/11 15:36:09;;;;;;;10.70;3.83;;;27.90;46.10;;;;;;5050710;28;20026;-84
2021/06/11 15:38:34;;;;;;;6.55;3.63;;;27.90;45.20;;;;;;5040342;28;20045;-83
2021/06/11 15:41:00;;;;;;;7.13;3.70;;;28.00;46.40;;;;;;5032152;28;20112;-79
